Time;durP1;ratioP1;P1;durP2;ratioP2;P2;SDS_P1;SDS_P2;PMS_P1;PMS_P2;Temp;Humidity;BMP_temperature;BMP_pressure;BME280_temperature;BME280_humidity;BME280_pressure;Samples;Min_cycle;Max_cycle;Signal;HPM_P1;HPM_P2
2021/07/07 00:01:31;;;;;;;3.45;1.38;;;;;;;;;;5058364;28;20075;-84
2021/07/07 00:03:59;;;;;;;7.80;1.40;;;;;;;;;;5060452;28;20045;-84
2021/07/07 00:06:28;;;;;;;3.72;1.30;;;;;;;;;;5059824;28;20359;-84
2021/07/07 00:09:00;;;;;;;9.98;1.50;;;;;;;;;;5057720;28;20120;-84
2021/07/07 00:11:36;;;;;;;7.82;2.25;;;;;;;;;;5059312;28;20055;-85
2021/07/07 00:14:05;;;;;;;6.00;1.90;;;;;;;;;;5057006;28;20068;-85
2021/07/07 00:16:32;;;;;;;5.50;1.98;;;;;;;;;;5060054;28;20045;-84
2021/07/07 00:18:59;;;;;;;9.25;2.33;;;;;;;;;;5057570;28;20312;-86
2021/07/07 00:21:26;;;;;;;9.05;2.22;;;;;;;;;;5056680;28;20055;-86
2021/07/07 00:23:55;;;;;;;8.23;1.50;;;;;;;;;;5057733;28;20052;-85
2021/07/07 00:26:21;;;;;;;9.30;1.88;;;;;;;;;;5058259;28;20101;-85
2021/07/07 00:28:48;;;;;;;4.05;1.40;;;;;;;;;;5068380;28;20088;-85
2021/07/07 00:31:15;;;;;;;9.43;1.55;;;;;;;;;;5068978;28;20092;-85
2021/07/07 00:33:44;;;;;;;6.25;2.25;;;;;;;;;;5069582;28;20049;-85
2021/07/07 00:36:12;;;;;;;6.05;2.00;;;;;;;;;;5066980;28;20047;-85
2021/07/07 00:38:39;;;;;;;8.65;2.17;;;;;;;;;;5068459;28;20069;-84
2021/07/07 00:41:05;;;;;;;9.27;2.03;;;;;;;;;;5067509;28;20049;-84
2021/07/07 00:43:32;;;;;;;8.70;2.13;;;;;;;;;;5067073;28;20048;-84
2021/07/07 00:46:16;;;;;;;5.05;1.83;;;;;;;;;;5062683;28;20049;-84
2021/07/07 00:48:43;;;;;;;7.20;1.75;;;;;;;;;;5056613;28;20049;-85
2021/07/07 00:51:14;;;;;;;5.32;1.70;;;;;;;;;;5061781;28;20445;-84
2021/07/07 00:53:41;;;;;;;5.45;1.50;;;;;;;;;;5058644;28;20069;-84
2021/07/07 00:56:09;;;;;;;6.68;1.70;;;;;;;;;;5060465;28;20052;-84
2021/07/07 00:58:36;;;;;;;6.20;1.40;;;;;;;;;;5063072;28;20075;-83
2021/07/07 01:01:04;;;;;;;4.78;1.52;;;;;;;;;;5066431;28;20052;-84
2021/07/07 01:03:31;;;;;;;5.18;1.30;;;;;;;;;;5067016;28;20134;-84
2021/07/07 01:05:58;;;;;;;6.68;1.50;;;;;;;;;;5074917;28;20072;-84
2021/07/07 01:08:27;;;;;;;5.03;1.65;;;;;;;;;;5066613;28;20107;-84
2021/07/07 01:10:57;;;;;;;7.30;1.33;;;;;;;;;;5065004;28;20059;-85
2021/07/07 01:13:23;;;;;;;2.35;1.23;;;;;;;;;;5064752;28;20057;-84
2021/07/07 01:15:51;;;;;;;4.63;1.42;;;;;;;;;;5063136;28;20057;-85
2021/07/07 01:18:18;;;;;;;7.70;1.48;;;;;;;;;;5063231;28;20061;-85
2021/07/07 01:20:45;;;;;;;5.55;1.58;;;;;;;;;;5063084;28;20045;-85
2021/07/07 01:23:12;;;;;;;3.03;1.50;;;;;;;;;;5064806;28;20041;-85
2021/07/07 01:25:38;;;;;;;4.30;1.55;;;;;;;;;;5063839;28;20123;-85
2021/07/07 01:28:06;;;;;;;6.93;1.50;;;;;;;;;;5063461;28;20114;-85
2021/07/07 01:30:35;;;;;;;4.70;1.52;;;;;;;;;;5062413;28;20075;-85
2021/07/07 01:33:02;;;;;;;5.18;2.50;;;;;;;;;;5064072;28;20056;-85
2021/07/07 01:35:29;;;;;;;3.90;1.30;;;;;;;;;;5072560;28;20065;-85
2021/07/07 01:37:56;;;;;;;5.78;1.73;;;;;;;;;;5073556;28;20121;-85
2021/07/07 01:40:26;;;;;;;5.80;1.60;;;;;;;;;;5077289;28;20109;-86
2021/07/07 01:42:54;;;;;;;9.98;1.55;;;;;;;;;;5065532;28;20044;-86
2021/07/07 01:45:28;;;;;;;11.07;1.63;;;;;;;;;;5059230;28;20053;-86
2021/07/07 01:47:55;;;;;;;3.65;1.45;;;;;;;;;;5060231;28;20072;-87
2021/07/07 01:50:22;;;;;;;6.35;1.58;;;;;;;;;;5058749;28;20049;-87
2021/07/07 01:52:59;;;;;;;7.30;1.75;;;;;;;;;;5062223;28;20335;-84
2021/07/07 01:55:26;;;;;;;6.82;1.75;;;;;;;;;;5064005;28;20092;-84
2021/07/07 01:57:53;;;;;;;3.45;1.63;;;;;;;;;;5063973;28;20049;-84
2021/07/07 02:00:28;;;;;;;8.60;1.60;;;;;;;;;;5065153;28;20055;-84
2021/07/07 02:02:55;;;;;;;4.22;1.55;;;;;;;;;;5063352;28;20052;-84
2021/07/07 02:05:28;;;;;;;3.28;1.33;;;;;;;;;;5064812;28;20119;-85
2021/07/07 02:07:57;;;;;;;6.35;1.45;;;;;;;;;;5064623;28;20055;-85
2021/07/07 02:10:24;;;;;;;3.95;1.52;;;;;;;;;;5064810;28;20052;-85
2021/07/07 02:12:51;;;;;;;3.85;1.40;;;;;;;;;;5064093;28;20049;-85
2021/07/07 02:15:20;;;;;;;4.05;1.33;;;;;;;;;;5063155;28;20055;-84
2021/07/07 02:17:48;;;;;;;9.98;2.13;;;;;;;;;;5062102;28;20045;-85
2021/07/07 02:20:16;;;;;;;3.30;1.50;;;;;;;;;;5059959;28;20397;-85
2021/07/07 02:22:43;;;;;;;5.38;1.65;;;;;;;;;;5061237;28;20072;-84
2021/07/07 02:25:14;;;;;;;5.63;1.95;;;;;;;;;;5063630;28;20045;-85
2021/07/07 02:27:41;;;;;;;4.70;2.13;;;;;;;;;;5062628;28;20412;-84
2021/07/07 02:30:15;;;;;;;8.07;2.38;;;;;;;;;;5061615;28;20049;-83
2021/07/07 02:32:42;;;;;;;4.70;2.17;;;;;;;;;;5061854;28;20041;-83
2021/07/07 02:35:10;;;;;;;8.55;2.05;;;;;;;;;;5060593;28;20140;-83
2021/07/07 02:37:37;;;;;;;8.27;1.80;;;;;;;;;;5074305;28;20059;-83
2021/07/07 02:40:06;;;;;;;6.18;1.80;;;;;;;;;;5060874;28;20045;-83
2021/07/07 02:42:33;;;;;;;6.80;2.33;;;;;;;;;;5062285;28;20056;-84
2021/07/07 02:45:00;;;;;;;7.13;3.08;;;;;;;;;;5062511;28;20045;-86
2021/07/07 02:47:29;;;;;;;4.18;1.77;;;;;;;;;;5062359;28;20417;-83
2021/07/07 02:49:56;;;;;;;10.45;2.08;;;;;;;;;;5062729;28;20146;-83
2021/07/07 02:52:23;;;;;;;6.80;2.10;;;;;;;;;;5061440;28;20049;-84
2021/07/07 02:54:50;;;;;;;9.40;2.00;;;;;;;;;;5061017;28;20041;-83
2021/07/07 02:57:17;;;;;;;4.90;1.92;;;;;;;;;;5062296;28;20052;-85
2021/07/07 02:59:44;;;;;;;3.72;1.70;;;;;;;;;;5060375;28;20049;-86
2021/07/07 03:02:12;;;;;;;5.78;2.10;;;;;;;;;;5059476;28;20059;-85
2021/07/07 03:04:44;;;;;;;10.30;2.20;;;;;;;;;;5054136;28;20060;-87
2021/07/07 03:07:26;;;;;;;7.03;2.03;;;;;;;;;;5051532;28;20053;-85
2021/07/07 03:09:52;;;;;;;6.22;1.95;;;;;;;;;;5058949;28;20049;-86
2021/07/07 03:12:22;;;;;;;6.95;2.20;;;;;;;;;;5059178;28;20113;-86
2021/07/07 03:14:53;;;;;;;4.93;2.15;;;;;;;;;;5059545;28;20059;-86
2021/07/07 03:17:20;;;;;;;7.03;2.30;;;;;;;;;;5032982;28;20155;-86
2021/07/07 03:19:47;;;;;;;10.25;3.17;;;;;;;;;;5057655;28;20443;-85
2021/07/07 03:22:14;;;;;;;11.93;2.20;;;;;;;;;;5057349;28;20432;-85
2021/07/07 03:24:44;;;;;;;6.43;2.60;;;;;;;;;;5058965;28;20063;-86
2021/07/07 03:27:11;;;;;;;12.27;2.90;;;;;;;;;;5063323;28;20048;-86
2021/07/07 03:29:38;;;;;;;9.38;2.13;;;;;;;;;;5059403;28;20053;-86
2021/07/07 03:32:05;;;;;;;6.03;2.55;;;;;;;;;;5060440;28;20083;-85
2021/07/07 03:34:32;;;;;;;13.90;2.58;;;;;;;;;;5062392;28;20332;-86
2021/07/07 03:36:59;;;;;;;13.85;2.80;;;;;;;;;;5062734;28;20049;-86
2021/07/07 03:39:26;;;;;;;7.07;2.40;;;;;;;;;;5063726;28;20395;-85
2021/07/07 03:41:54;;;;;;;11.00;2.80;;;;;;;;;;5062972;28;20432;-85
2021/07/07 03:44:21;;;;;;;9.02;2.55;;;;;;;;;;5064853;28;20045;-85
2021/07/07 03:46:48;;;;;;;5.00;2.35;;;;;;;;;;5063856;28;20037;-85
2021/07/07 03:49:15;;;;;;;9.13;2.78;;;;;;;;;;5064875;28;20328;-86
2021/07/07 03:51:56;;;;;;;7.00;2.38;;;;;;;;;;5065274;28;20191;-85
2021/07/07 03:54:24;;;;;;;7.60;2.30;;;;;;;;;;5061593;28;20064;-85
2021/07/07 03:56:57;;;;;;;12.13;3.17;;;;;;;;;;5059643;28;20133;-85
2021/07/07 03:59:24;;;;;;;11.23;3.13;;;;;;;;;;5058631;28;20328;-86
2021/07/07 04:01:55;;;;;;;4.43;2.22;;;;;;;;;;5057407;28;20044;-84
2021/07/07 04:04:24;;;;;;;6.57;2.42;;;;;;;;;;5055887;28;20048;-85
2021/07/07 04:06:51;;;;;;;8.40;2.38;;;;;;;;;;5058134;28;20048;-85
2021/07/07 04:09:19;;;;;;;15.20;3.95;;;;;;;;;;5058897;28;20049;-85
2021/07/07 04:11:47;;;;;;;9.60;3.25;;;;;;;;;;5058754;28;20037;-85
2021/07/07 04:14:23;;;;;;;13.13;3.85;;;;;;;;;;5063831;28;20057;-85
2021/07/07 04:16:52;;;;;;;15.70;4.07;;;;;;;;;;5067450;28;20053;-85
2021/07/07 04:19:49;;;;;;;12.25;3.40;;;;;;;;;;5067242;28;20049;-85
2021/07/07 04:22:16;;;;;;;18.52;4.78;;;;;;;;;;5062462;28;20052;-84
2021/07/07 04:24:44;;;;;;;15.23;4.15;;;;;;;;;;5062286;28;20049;-85
2021/07/07 04:27:18;;;;;;;11.15;3.22;;;;;;;;;;5062156;28;20063;-85
2021/07/07 04:29:47;;;;;;;6.57;2.85;;;;;;;;;;5059014;28;20147;-85
2021/07/07 04:32:16;;;;;;;8.35;2.58;;;;;;;;;;5059923;28;20344;-85
2021/07/07 04:34:46;;;;;;;12.40;3.00;;;;;;;;;;5062223;28;20053;-85
2021/07/07 04:37:13;;;;;;;11.68;3.28;;;;;;;;;;5063331;28;20113;-85
2021/07/07 04:39:40;;;;;;;9.68;2.75;;;;;;;;;;5063228;28;20073;-85
2021/07/07 04:42:07;;;;;;;4.80;2.58;;;;;;;;;;5072127;28;20109;-84
2021/07/07 04:44:34;;;;;;;12.40;2.88;;;;;;;;;;5062251;28;20175;-85
2021/07/07 04:47:01;;;;;;;13.50;3.45;;;;;;;;;;5063811;28;20040;-84
2021/07/07 04:49:27;;;;;;;6.75;2.20;;;;;;;;;;5061704;28;20044;-85
2021/07/07 04:51:55;;;;;;;8.52;2.92;;;;;;;;;;5067155;28;20037;-84
2021/07/07 04:54:21;;;;;;;11.30;2.85;;;;;;;;;;5074893;28;20040;-85
2021/07/07 04:56:48;;;;;;;13.13;2.92;;;;;;;;;;5070460;28;20080;-85
2021/07/07 04:59:15;;;;;;;18.10;3.95;;;;;;;;;;5059486;28;20134;-85
2021/07/07 05:01:50;;;;;;;10.02;2.47;;;;;;;;;;5058716;28;20049;-85
2021/07/07 05:04:18;;;;;;;10.05;2.90;;;;;;;;;;5059335;28;20075;-86
2021/07/07 05:06:48;;;;;;;11.82;2.80;;;;;;;;;;5060517;28;20045;-85
2021/07/07 05:09:15;;;;;;;14.40;2.97;;;;;;;;;;5058728;28;20049;-84
2021/07/07 05:11:43;;;;;;;19.73;3.13;;;;;;;;;;5046049;28;20323;-84
2021/07/07 05:14:10;;;;;;;7.78;2.33;;;;;;;;;;5064027;28;20053;-86
2021/07/07 05:16:37;;;;;;;11.45;3.03;;;;;;;;;;5057944;28;20118;-86
2021/07/07 05:19:07;;;;;;;8.38;2.20;;;;;;;;;;5056975;28;20068;-85
2021/07/07 05:21:35;;;;;;;7.97;2.55;;;;;;;;;;5057487;28;20076;-84
2021/07/07 05:24:07;;;;;;;10.52;2.55;;;;;;;;;;5060019;28;20041;-85
2021/07/07 05:26:35;;;;;;;9.82;2.35;;;;;;;;;;5059780;28;20056;-86
2021/07/07 05:29:04;;;;;;;12.13;2.58;;;;;;;;;;5056761;28;20442;-85
2021/07/07 05:31:32;;;;;;;10.38;2.42;;;;;;;;;;5053832;28;20262;-85
2021/07/07 05:33:59;;;;;;;9.82;2.33;;;;;;;;;;5053297;28;20375;-85
2021/07/07 05:36:26;;;;;;;7.95;2.17;;;;;;;;;;5056992;28;20104;-86
2021/07/07 05:38:53;;;;;;;9.13;2.63;;;;;;;;;;5053318;28;20055;-86
2021/07/07 05:41:20;;;;;;;5.70;1.92;;;;;;;;;;5061724;28;20106;-85
2021/07/07 05:43:48;;;;;;;5.10;1.63;;;;;;;;;;5061597;28;20090;-85
2021/07/07 05:46:21;;;;;;;6.47;2.17;;;;;;;;;;5050264;28;20090;-86
2021/07/07 05:48:49;;;;;;;9.73;2.80;;;;;;;;;;5052337;28;20245;-85
2021/07/07 05:51:16;;;;;;;5.85;1.83;;;;;;;;;;5051215;28;20147;-85
2021/07/07 05:53:44;;;;;;;10.63;2.72;;;;;;;;;;5039897;28;20488;-85
2021/07/07 05:56:10;;;;;;;15.38;2.67;;;;;;;;;;5051435;28;20049;-85
2021/07/07 05:58:39;;;;;;;12.70;1.90;;;;;;;;;;5051395;28;20045;-85
2021/07/07 06:01:05;;;;;;;11.45;2.40;;;;;;;;;;5059876;28;20065;-84
2021/07/07 06:03:34;;;;;;;13.32;2.55;;;;;;;;;;5052780;28;20132;-84
2021/07/07 06:06:04;;;;;;;6.68;1.73;;;;;;;;;;5056426;28;20045;-84
2021/07/07 06:08:31;;;;;;;5.90;1.35;;;;;;;;;;5057729;28;20064;-85
2021/07/07 06:11:00;;;;;;;7.63;1.33;;;;;;;;;;5053597;28;20115;-85
2021/07/07 06:13:27;;;;;;;7.53;1.60;;;;;;;;;;5056829;28;20142;-84
2021/07/07 06:15:54;;;;;;;9.13;1.40;;;;;;;;;;5054025;28;20072;-84
2021/07/07 06:18:21;;;;;;;7.00;1.77;;;;;;;;;;5055609;28;20095;-85
2021/07/07 06:20:51;;;;;;;6.07;1.35;;;;;;;;;;5051933;28;20045;-84
2021/07/07 06:23:18;;;;;;;10.05;1.98;;;;;;;;;;5054013;28;20111;-84
2021/07/07 06:25:46;;;;;;;7.22;1.40;;;;;;;;;;5053715;28;20037;-83
2021/07/07 06:28:12;;;;;;;11.20;1.80;;;;;;;;;;5054481;28;20368;-85
2021/07/07 06:30:45;;;;;;;5.10;1.23;;;;;;;;;;5054180;28;20072;-85
2021/07/07 06:33:13;;;;;;;6.15;1.48;;;;;;;;;;5062382;28;20043;-85
2021/07/07 06:35:40;;;;;;;5.75;1.52;;;;;;;;;;5062929;28;20040;-85
2021/07/07 06:38:05;;;;;;;8.40;1.70;;;;;;;;;;5061708;28;20029;-85
2021/07/07 06:40:34;;;;;;;3.08;1.10;;;;;;;;;;5060724;28;20049;-85
2021/07/07 06:43:35;;;;;;;3.03;1.15;;;;;;;;;;5060281;28;20046;-85
2021/07/07 06:46:02;;;;;;;3.30;1.08;;;;;;;;;;5055092;28;20049;-85
2021/07/07 06:48:29;;;;;;;7.10;1.60;;;;;;;;;;5058595;28;20055;-85
2021/07/07 06:50:56;;;;;;;6.47;1.25;;;;;;;;;;5064547;28;20153;-84
2021/07/07 06:53:36;;;;;;;5.93;1.35;;;;;;;;;;5059308;28;20163;-84
2021/07/07 06:56:03;;;;;;;4.32;1.20;;;;;;;;;;5053759;28;20212;-86
2021/07/07 06:58:29;;;;;;;4.45;1.40;;;;;;;;;;5054611;28;20108;-86
2021/07/07 07:00:58;;;;;;;2.47;1.02;;;;;;;;;;5051487;28;20048;-86
2021/07/07 07:03:27;;;;;;;6.85;1.88;;;;;;;;;;5052236;28;20040;-84
2021/07/07 07:05:54;;;;;;;6.70;1.33;;;;;;;;;;5055379;28;20052;-85
2021/07/07 07:08:21;;;;;;;10.02;1.55;;;;;;;;;;5052637;28;20048;-86
2021/07/07 07:10:51;;;;;;;9.18;1.63;;;;;;;;;;5075822;28;20052;-86
2021/07/07 07:13:19;;;;;;;6.55;1.58;;;;;;;;;;5057489;28;20115;-86
2021/07/07 07:15:48;;;;;;;5.50;1.55;;;;;;;;;;5055358;28;20049;-85
2021/07/07 07:18:19;;;;;;;4.53;1.48;;;;;;;;;;5055077;28;20048;-87
2021/07/07 07:20:46;;;;;;;4.60;1.20;;;;;;;;;;5054426;28;20040;-86
2021/07/07 07:23:14;;;;;;;6.40;1.55;;;;;;;;;;5058005;28;20041;-86
2021/07/07 07:25:43;;;;;;;6.93;1.27;;;;;;;;;;5055592;28;20041;-85
2021/07/07 07:28:10;;;;;;;6.45;1.40;;;;;;;;;;5054281;28;20045;-85
2021/07/07 07:30:37;;;;;;;5.03;1.63;;;;;;;;;;5053025;28;20060;-85
2021/07/07 07:33:17;;;;;;;12.77;1.85;;;;;;;;;;5057177;28;20128;-86
2021/07/07 07:35:44;;;;;;;6.13;1.67;;;;;;;;;;5054856;28;20139;-86
2021/07/07 07:38:26;;;;;;;4.93;1.77;;;;;;;;;;5053288;28;20100;-86
2021/07/07 07:40:56;;;;;;;9.07;2.42;;;;;;;;;;5056379;28;20076;-86
2021/07/07 07:43:26;;;;;;;7.03;1.38;;;;;;;;;;5055437;28;20059;-84
2021/07/07 07:45:59;;;;;;;8.10;1.75;;;;;;;;;;5060424;28;20060;-86
2021/07/07 07:48:29;;;;;;;6.30;1.80;;;;;;;;;;5053812;28;20155;-85
2021/07/07 07:50:57;;;;;;;8.02;1.50;;;;;;;;;;5055258;28;20057;-84
2021/07/07 07:53:23;;;;;;;6.40;1.65;;;;;;;;;;5054774;28;20364;-85
2021/07/07 07:55:56;;;;;;;10.45;1.80;;;;;;;;;;5055815;28;20284;-85
2021/07/07 07:58:22;;;;;;;9.02;1.83;;;;;;;;;;5053137;28;20128;-85
2021/07/07 08:00:52;;;;;;;12.18;1.35;;;;;;;;;;5058687;28;20044;-86
2021/07/07 08:03:19;;;;;;;10.10;1.42;;;;;;;;;;5070412;28;20080;-85
2021/07/07 08:05:46;;;;;;;9.95;1.60;;;;;;;;;;5052716;28;20036;-84
2021/07/07 08:08:13;;;;;;;8.65;2.03;;;;;;;;;;5056179;28;20053;-85
2021/07/07 08:10:40;;;;;;;8.25;1.60;;;;;;;;;;5063696;28;20318;-86
2021/07/07 08:13:21;;;;;;;7.60;1.42;;;;;;;;;;5063010;28;20084;-86
2021/07/07 08:15:48;;;;;;;3.47;1.40;;;;;;;;;;5056131;28;20219;-85
2021/07/07 08:18:16;;;;;;;4.70;1.30;;;;;;;;;;5053295;28;20053;-85
2021/07/07 08:20:45;;;;;;;10.20;1.52;;;;;;;;;;5054384;28;20079;-85
2021/07/07 08:23:15;;;;;;;8.82;1.98;;;;;;;;;;5054938;28;20104;-85
2021/07/07 08:25:46;;;;;;;8.13;1.73;;;;;;;;;;5058467;28;20045;-85
2021/07/07 08:28:13;;;;;;;11.32;1.80;;;;;;;;;;5054061;28;20265;-86
2021/07/07 08:30:40;;;;;;;6.90;1.35;;;;;;;;;;5057747;28;20155;-84
2021/07/07 08:33:19;;;;;;;5.43;1.52;;;;;;;;;;5056494;28;20088;-86
2021/07/07 08:35:49;;;;;;;11.07;1.83;;;;;;;;;;5053904;28;20103;-85
2021/07/07 08:38:16;;;;;;;10.13;2.22;;;;;;;;;;5050556;28;20099;-86
2021/07/07 08:40:46;;;;;;;8.55;1.83;;;;;;;;;;5051427;28;20099;-85
2021/07/07 08:43:13;;;;;;;8.13;1.98;;;;;;;;;;5053736;28;20076;-85
2021/07/07 08:45:46;;;;;;;8.35;1.77;;;;;;;;;;5048877;28;20045;-85
2021/07/07 08:48:13;;;;;;;4.78;1.27;;;;;;;;;;5052956;28;20395;-84
2021/07/07 08:50:43;;;;;;;8.75;2.17;;;;;;;;;;5055920;28;20049;-84
2021/07/07 08:53:14;;;;;;;13.32;2.17;;;;;;;;;;5055231;28;20065;-84
2021/07/07 08:55:42;;;;;;;10.20;1.58;;;;;;;;;;5053582;28;20072;-86
2021/07/07 08:58:09;;;;;;;8.77;1.45;;;;;;;;;;5054276;28;20040;-84
2021/07/07 09:00:51;;;;;;;8.52;1.40;;;;;;;;;;5052833;28;20052;-84
2021/07/07 09:03:19;;;;;;;7.22;1.60;;;;;;;;;;5054451;28;20057;-85
2021/07/07 09:05:52;;;;;;;8.15;1.92;;;;;;;;;;5055886;28;20212;-84
2021/07/07 09:08:27;;;;;;;5.80;1.40;;;;;;;;;;5049561;28;20135;-84
2021/07/07 09:10:55;;;;;;;14.43;1.88;;;;;;;;;;5049888;28;20045;-84
2021/07/07 09:13:24;;;;;;;7.60;1.33;;;;;;;;;;5050018;28;20061;-84
2021/07/07 09:15:52;;;;;;;9.65;1.50;;;;;;;;;;5051587;28;20057;-85
2021/07/07 09:18:32;;;;;;;5.05;1.40;;;;;;;;;;5039539;28;20059;-84
2021/07/07 09:21:05;;;;;;;8.07;1.40;;;;;;;;;;5060573;28;20051;-85
2021/07/07 09:23:33;;;;;;;8.68;1.40;;;;;;;;;;5062038;28;20080;-86
2021/07/07 09:26:04;;;;;;;7.57;1.63;;;;;;;;;;5059908;28;20127;-85
2021/07/07 09:28:38;;;;;;;10.57;1.70;;;;;;;;;;5059193;28;20542;-86
2021/07/07 09:31:25;;;;;;;6.60;1.73;;;;;;;;;;5056963;28;20041;-85
2021/07/07 09:33:52;;;;;;;9.98;1.88;;;;;;;;;;5060120;28;20499;-86
2021/07/07 09:36:22;;;;;;;5.57;1.17;;;;;;;;;;5069737;28;20060;-86
2021/07/07 09:38:50;;;;;;;5.75;1.55;;;;;;;;;;5057983;28;20352;-85
2021/07/07 09:41:17;;;;;;;7.43;1.63;;;;;;;;;;5055068;28;20053;-84
2021/07/07 09:43:54;;;;;;;7.13;1.60;;;;;;;;;;5057772;28;20036;-85
2021/07/07 09:46:21;;;;;;;7.47;1.38;;;;;;;;;;5052095;28;20040;-86
2021/07/07 09:48:49;;;;;;;6.80;1.30;;;;;;;;;;5057026;28;20218;-85
2021/07/07 09:51:17;;;;;;;5.72;1.50;;;;;;;;;;5058597;28;20127;-85
2021/07/07 09:53:57;;;;;;;9.80;1.35;;;;;;;;;;5059441;28;20053;-84
2021/07/07 09:56:30;;;;;;;9.90;1.87;;;;;;;;;;5058935;28;20120;-84
2021/07/07 09:58:56;;;;;;;8.32;1.70;;;;;;;;;;5060155;28;20052;-85
2021/07/07 10:01:23;;;;;;;13.05;1.90;;;;;;;;;;5059404;28;20049;-85
2021/07/07 10:03:55;;;;;;;5.65;1.70;;;;;;;;;;5062001;28;20045;-86
2021/07/07 10:06:22;;;;;;;12.18;2.03;;;;;;;;;;5062817;28;20073;-85
2021/07/07 10:08:49;;;;;;;9.55;2.08;;;;;;;;;;5056691;28;20237;-86
2021/07/07 10:11:17;;;;;;;12.02;1.40;;;;;;;;;;5055575;28;20189;-85
2021/07/07 10:13:59;;;;;;;11.02;1.38;;;;;;;;;;5054977;28;20124;-85
2021/07/07 10:16:28;;;;;;;6.75;2.17;;;;;;;;;;5058651;28;20060;-85
2021/07/07 10:18:56;;;;;;;6.82;1.70;;;;;;;;;;5057037;28;20245;-86
2021/07/07 10:21:23;;;;;;;9.40;1.67;;;;;;;;;;5056823;28;20297;-85
2021/07/07 10:23:50;;;;;;;8.85;1.40;;;;;;;;;;5056435;28;20052;-85
2021/07/07 10:26:21;;;;;;;14.77;1.70;;;;;;;;;;5057784;28;20424;-86
2021/07/07 10:28:49;;;;;;;6.80;1.90;;;;;;;;;;5059324;28;20045;-84
2021/07/07 10:31:16;;;;;;;7.32;1.42;;;;;;;;;;5059302;28;20057;-86
2021/07/07 10:33:45;;;;;;;10.57;1.73;;;;;;;;;;5060864;28;20096;-84
2021/07/07 10:36:12;;;;;;;8.20;1.58;;;;;;;;;;5066696;28;20048;-85
2021/07/07 10:38:39;;;;;;;8.88;1.67;;;;;;;;;;5060516;28;20049;-85
2021/07/07 10:41:06;;;;;;;7.50;1.77;;;;;;;;;;5058939;28;20045;-85
2021/07/07 10:43:46;;;;;;;13.05;1.70;;;;;;;;;;5060028;28;20209;-85
2021/07/07 10:46:13;;;;;;;11.15;1.95;;;;;;;;;;5059821;28;20080;-85
2021/07/07 10:48:40;;;;;;;8.70;2.15;;;;;;;;;;5056818;28;20049;-85
2021/07/07 10:51:32;;;;;;;7.85;1.80;;;;;;;;;;5059213;28;20045;-85
2021/07/07 10:54:18;;;;;;;8.60;1.63;;;;;;;;;;5058910;28;20099;-84
2021/07/07 10:56:45;;;;;;;9.20;1.90;;;;;;;;;;5050624;28;20081;-84
2021/07/07 10:59:27;;;;;;;8.05;1.45;;;;;;;;;;5055513;28;20428;-83
2021/07/07 11:02:08;;;;;;;9.82;1.63;;;;;;;;;;5052338;28;20090;-84
2021/07/07 11:04:40;;;;;;;13.68;1.80;;;;;;;;;;5052627;28;20099;-83
2021/07/07 11:07:24;;;;;;;7.80;1.48;;;;;;;;;;5051480;28;20301;-85
2021/07/07 11:09:54;;;;;;;6.53;1.35;;;;;;;;;;5051452;28;20140;-84
2021/07/07 11:12:45;;;;;;;6.25;1.55;;;;;;;;;;5052190;28;20063;-84
2021/07/07 11:15:17;;;;;;;8.80;1.65;;;;;;;;;;5013411;28;20053;-84
2021/07/07 11:17:45;;;;;;;9.52;1.80;;;;;;;;;;5038945;28;20053;-84
2021/07/07 11:20:15;;;;;;;9.15;1.90;;;;;;;;;;5048170;28;20161;-84
2021/07/07 11:22:44;;;;;;;11.80;2.00;;;;;;;;;;5044660;28;20071;-84
2021/07/07 11:25:15;;;;;;;6.85;2.00;;;;;;;;;;5049553;28;20240;-83
2021/07/07 11:27:42;;;;;;;8.35;1.95;;;;;;;;;;5047794;28;20044;-84
2021/07/07 11:30:11;;;;;;;4.93;1.27;;;;;;;;;;5061558;28;20065;-84
2021/07/07 11:32:43;;;;;;;8.68;1.80;;;;;;;;;;5062606;28;20073;-84
2021/07/07 11:35:12;;;;;;;13.48;1.52;;;;;;;;;;5048098;28;20057;-84
2021/07/07 11:37:39;;;;;;;8.32;1.58;;;;;;;;;;5043995;28;20125;-83
2021/07/07 11:40:19;;;;;;;7.70;1.40;;;;;;;;;;5045574;28;20285;-85
2021/07/07 11:43:05;;;;;;;6.78;1.45;;;;;;;;;;5048853;28;20042;-84
2021/07/07 11:45:35;;;;;;;9.17;1.53;;;;;;;;;;5052699;28;20505;-84
2021/07/07 11:48:16;;;;;;;7.47;1.75;;;;;;;;;;5050308;28;20068;-84
2021/07/07 11:50:49;;;;;;;12.70;1.85;;;;;;;;;;5047535;28;20297;-84
2021/07/07 11:53:16;;;;;;;8.57;1.45;;;;;;;;;;5049939;28;20056;-84
2021/07/07 11:55:57;;;;;;;7.65;1.70;;;;;;;;;;5060652;28;20102;-84
2021/07/07 11:58:28;;;;;;;7.47;1.90;;;;;;;;;;5055521;28;20102;-84
2021/07/07 12:00:56;;;;;;;6.05;1.38;;;;;;;;;;5056678;28;20067;-84
2021/07/07 12:03:30;;;;;;;7.97;2.03;;;;;;;;;;5048152;28;20065;-84
2021/07/07 12:06:12;;;;;;;11.23;1.40;;;;;;;;;;5048192;28;20051;-84
2021/07/07 12:08:40;;;;;;;12.80;3.05;;;;;;;;;;5047196;28;20052;-84
2021/07/07 12:11:08;;;;;;;6.90;1.60;;;;;;;;;;5047854;28;20041;-84
2021/07/07 12:13:36;;;;;;;6.63;1.40;;;;;;;;;;5047581;28;20312;-84
2021/07/07 12:16:17;;;;;;;8.35;1.55;;;;;;;;;;5047260;28;20049;-84
2021/07/07 12:18:44;;;;;;;8.80;1.55;;;;;;;;;;5049703;28;20036;-84
2021/07/07 12:21:27;;;;;;;7.25;1.17;;;;;;;;;;5050323;28;20336;-84
2021/07/07 12:23:55;;;;;;;5.13;1.27;;;;;;;;;;5048766;28;20084;-84
2021/07/07 12:26:22;;;;;;;7.35;1.05;;;;;;;;;;5050266;28;20204;-84
2021/07/07 12:28:50;;;;;;;8.98;1.35;;;;;;;;;;5048146;28;20277;-85
2021/07/07 12:31:17;;;;;;;8.18;1.10;;;;;;;;;;5048245;28;20041;-84
2021/07/07 12:33:45;;;;;;;5.75;1.60;;;;;;;;;;5051754;28;20196;-84
2021/07/07 12:36:12;;;;;;;6.63;1.48;;;;;;;;;;5055702;28;20408;-85
2021/07/07 12:38:45;;;;;;;6.95;1.45;;;;;;;;;;5051927;28;20444;-84
2021/07/07 12:41:12;;;;;;;6.20;1.60;;;;;;;;;;5053736;28;20049;-84
2021/07/07 12:46:55;;;;;;;5.18;1.15;;;;;;;;;;5046634;28;20055;-84
2021/07/07 12:49:38;;;;;;;4.03;0.98;;;;;;;;;;5055680;28;20107;-84
2021/07/07 12:52:12;;;;;;;5.22;1.55;;;;;;;;;;5056775;28;20198;-84
2021/07/07 12:54:39;;;;;;;5.60;1.23;;;;;;;;;;5065418;28;20041;-84
2021/07/07 12:57:06;;;;;;;8.70;1.40;;;;;;;;;;5050993;28;20551;-84
2021/07/07 12:59:36;;;;;;;9.10;1.20;;;;;;;;;;5058679;28;20578;-85
2021/07/07 13:02:12;;;;;;;10.48;1.38;;;;;;;;;;5048581;28;20052;-84
2021/07/07 13:04:44;;;;;;;5.40;1.52;;;;;;;;;;5048447;28;20188;-84
2021/07/07 13:07:13;;;;;;;8.05;1.60;;;;;;;;;;5050343;28;20405;-84
2021/07/07 13:09:52;;;;;;;3.78;1.10;;;;;;;;;;5048936;28;20388;-84
2021/07/07 13:12:26;;;;;;;9.10;1.48;;;;;;;;;;5050082;28;20045;-84
2021/07/07 13:14:57;;;;;;;5.28;1.77;;;;;;;;;;5054097;28;20139;-84
2021/07/07 13:17:24;;;;;;;5.78;1.63;;;;;;;;;;5048189;28;20045;-85
2021/07/07 13:19:58;;;;;;;4.10;1.23;;;;;;;;;;5052531;28;20340;-85
2021/07/07 13:22:24;;;;;;;7.38;1.77;;;;;;;;;;5050265;28;20056;-85
2021/07/07 13:24:51;;;;;;;8.13;1.50;;;;;;;;;;5050552;28;20208;-84
2021/07/07 13:27:44;;;;;;;4.70;1.45;;;;;;;;;;5053337;28;20059;-91
2021/07/07 13:30:56;;;;;;;6.63;1.55;;;;;;;;;;5158968;27;20520;-84
2021/07/07 13:33:23;;;;;;;4.97;1.30;;;;;;;;;;5147055;27;20169;-84
2021/07/07 13:35:50;;;;;;;9.35;1.50;;;;;;;;;;5135773;27;20186;-84
2021/07/07 13:38:16;;;;;;;4.63;1.20;;;;;;;;;;5113221;28;20043;-84
2021/07/07 13:40:43;;;;;;;6.15;1.30;;;;;;;;;;5121104;28;20054;-84
2021/07/07 13:43:24;;;;;;;9.30;1.70;;;;;;;;;;5119081;28;20073;-83
2021/07/07 13:45:50;;;;;;;11.98;1.38;;;;;;;;;;5124281;27;20198;-84
2021/07/07 13:48:17;;;;;;;9.45;1.13;;;;;;;;;;5116721;27;20047;-84
2021/07/07 13:50:44;;;;;;;4.97;1.25;;;;;;;;;;5120644;27;20303;-84
2021/07/07 13:53:11;;;;;;;4.88;0.80;;;;;;;;;;5122944;27;20043;-85
2021/07/07 13:55:37;;;;;;;3.28;1.00;;;;;;;;;;5116746;27;20143;-85
2021/07/07 13:58:05;;;;;;;3.88;0.85;;;;;;;;;;5140519;27;20061;-84
2021/07/07 14:00:32;;;;;;;7.18;1.63;;;;;;;;;;5135681;27;20058;-85
2021/07/07 14:02:59;;;;;;;6.53;1.25;;;;;;;;;;5123220;27;20077;-85
2021/07/07 14:05:27;;;;;;;6.60;1.63;;;;;;;;;;5144625;27;20254;-84
2021/07/07 14:07:53;;;;;;;7.65;1.67;;;;;;;;;;5143074;27;20051;-84
2021/07/07 14:10:23;;;;;;;6.72;1.08;;;;;;;;;;5122375;27;20400;-84
2021/07/07 14:12:50;;;;;;;8.85;1.27;;;;;;;;;;5127960;27;20294;-84
2021/07/07 14:15:18;;;;;;;10.18;1.50;;;;;;;;;;5119480;27;20107;-84
2021/07/07 14:17:45;;;;;;;5.78;1.27;;;;;;;;;;5134945;27;20077;-84
2021/07/07 14:20:18;;;;;;;9.20;1.83;;;;;;;;;;5138351;27;20400;-84
2021/07/07 14:22:45;;;;;;;7.70;1.30;;;;;;;;;;5133001;27;20135;-85
2021/07/07 14:25:11;;;;;;;9.27;1.48;;;;;;;;;;5118429;27;20057;-84
2021/07/07 14:27:38;;;;;;;7.13;1.38;;;;;;;;;;5114192;27;20131;-85
2021/07/07 14:30:09;;;;;;;4.85;1.10;;;;;;;;;;5126404;28;20241;-85
2021/07/07 14:32:38;;;;;;;6.72;1.40;;;;;;;;;;5122739;28;20245;-85
2021/07/07 14:35:08;;;;;;;7.85;1.98;;;;;;;;;;5119714;28;20109;-84
2021/07/07 14:37:35;;;;;;;6.13;1.13;;;;;;;;;;5118753;28;20358;-84
2021/07/07 14:40:01;;;;;;;5.43;1.52;;;;;;;;;;5114883;27;20062;-85
2021/07/07 14:42:38;;;;;;;6.25;1.55;;;;;;;;;;5103164;28;20052;-85
2021/07/07 14:45:05;;;;;;;3.90;0.88;;;;;;;;;;5110989;28;20052;-85
2021/07/07 14:47:32;;;;;;;8.95;1.45;;;;;;;;;;5109818;28;20040;-85
2021/07/07 14:50:03;;;;;;;7.93;1.98;;;;;;;;;;5104840;28;20032;-85
2021/07/07 14:52:32;;;;;;;8.80;2.08;;;;;;;;;;5114359;28;20058;-85
2021/07/07 14:55:11;;;;;;;4.50;1.15;;;;;;;;;;5110054;28;20044;-84
2021/07/07 14:57:38;;;;;;;5.97;1.20;;;;;;;;;;5103451;28;20121;-85
2021/07/07 15:00:09;;;;;;;6.03;1.60;;;;;;;;;;5102575;28;20363;-85